Terminal Aerodrome Forecast
Issued by NWS Shreveport, LA

Home | Current Version | Previous Version | Text Only | Print | Product List | Glossary On
Versions: 1 2 3 4 5 6 7 8 9 10 11 12 13 14 15 16
000
FTUS44 KSHV 270500
TAFLFK
TAF
KLFK 270524Z 2706/2806 05003KT P6SM SCT250
      TEMPO 2710/2714 3SM BR
     FM271500 09007KT P6SM VCTS SCT040CB SCT250
     FM280000 13004KT P6SM SCT070 BKN250=

USA.gov is the U.S. government's official web portal to all federal, state and local government web resources and services.